sensor_id;sensor_type;location;lat;lon;timestamp;pressure;altitude;pressure_sealevel;temperature;humidity
66681;BME280;53575;51.366;12.350;2022-09-30T00:01:04;99508.97;;;6.75;100.00
66681;BME280;53575;51.366;12.350;2022-09-30T00:03:30;99511.59;;;6.73;100.00
66681;BME280;53575;51.366;12.350;2022-09-30T00:05:59;99517.56;;;6.98;100.00
66681;BME280;53575;51.366;12.350;2022-09-30T00:08:25;99519.25;;;7.10;100.00
66681;BME280;53575;51.366;12.350;2022-09-30T00:11:02;99522.72;;;7.06;100.00
66681;BME280;53575;51.366;12.350;2022-09-30T00:13:30;99524.47;;;7.01;100.00
66681;BME280;53575;51.366;12.350;2022-09-30T00:15:55;99526.22;;;6.94;100.00
66681;BME280;53575;51.366;12.350;2022-09-30T00:18:21;99521.00;;;7.00;100.00
66681;BME280;53575;51.366;12.350;2022-09-30T00:20:46;99522.69;;;7.14;100.00
66681;BME280;53575;51.366;12.350;2022-09-30T00:23:12;99527.84;;;7.18;100.00
66681;BME280;53575;51.366;12.350;2022-09-30T00:25:37;99526.16;;;7.11;100.00
66681;BME280;53575;51.366;12.350;2022-09-30T00:28:02;99532.31;;;6.87;100.00
66681;BME280;53575;51.366;12.350;2022-09-30T00:30:28;99526.22;;;6.93;100.00
66681;BME280;53575;51.366;12.350;2022-09-30T00:32:53;99531.41;;;6.99;100.00
66681;BME280;53575;51.366;12.350;2022-09-30T00:35:19;99521.84;;;7.10;100.00
66681;BME280;53575;51.366;12.350;2022-09-30T00:37:46;99527.84;;;7.17;100.00
66681;BME280;53575;51.366;12.350;2022-09-30T00:40:11;99523.47;;;7.28;100.00
66681;BME280;53575;51.366;12.350;2022-09-30T00:42:40;99521.72;;;7.30;100.00
66681;BME280;53575;51.366;12.350;2022-09-30T00:45:08;99523.59;;;7.03;100.00
66681;BME280;53575;51.366;12.350;2022-09-30T00:47:42;99523.66;;;6.91;100.00
66681;BME280;53575;51.366;12.350;2022-09-30T00:50:33;99520.97;;;7.02;100.00
66681;BME280;53575;51.366;12.350;2022-09-30T00:53:16;99526.28;;;6.83;100.00
66681;BME280;53575;51.366;12.350;2022-09-30T00:58:35;99522.91;;;6.48;100.00
66681;BME280;53575;51.366;12.350;2022-09-30T01:01:02;99524.66;;;6.32;100.00
66681;BME280;53575;51.366;12.350;2022-09-30T01:03:33;99537.66;;;6.20;100.00
66681;BME280;53575;51.366;12.350;2022-09-30T01:06:01;99528.13;;;5.90;100.00
66681;BME280;53575;51.366;12.350;2022-09-30T01:08:27;99530.72;;;5.91;100.00
66681;BME280;53575;51.366;12.350;2022-09-30T01:10:54;99542.84;;;6.30;100.00
66681;BME280;53575;51.366;12.350;2022-09-30T01:13:21;99549.69;;;6.59;100.00
66681;BME280;53575;51.366;12.350;2022-09-30T01:21:58;99539.34;;;6.48;100.00
66681;BME280;53575;51.366;12.350;2022-09-30T01:24:38;99542.81;;;6.44;100.00
66681;BME280;53575;51.366;12.350;2022-09-30T01:35:45;99547.16;;;6.28;100.00
66681;BME280;53575;51.366;12.350;2022-09-30T01:40:50;99546.28;;;6.43;100.00
66681;BME280;53575;51.366;12.350;2022-09-30T01:43:37;99542.78;;;6.64;100.00
66681;BME280;53575;51.366;12.350;2022-09-30T01:51:35;99548.00;;;6.49;100.00
66681;BME280;53575;51.366;12.350;2022-09-30T01:54:23;99554.09;;;6.26;100.00
66681;BME280;53575;51.366;12.350;2022-09-30T01:56:59;99550.63;;;6.32;100.00
66681;BME280;53575;51.366;12.350;2022-09-30T01:59:41;99548.91;;;6.13;100.00
66681;BME280;53575;51.366;12.350;2022-09-30T02:02:17;99554.94;;;6.21;100.00
66681;BME280;53575;51.366;12.350;2022-09-30T02:04:49;99558.41;;;6.24;100.00
66681;BME280;53575;51.366;12.350;2022-09-30T02:07:23;99557.50;;;6.51;100.00
66681;BME280;53575;51.366;12.350;2022-09-30T02:09:57;99561.00;;;6.40;100.00
66681;BME280;53575;51.366;12.350;2022-09-30T02:12:27;99564.44;;;6.29;100.00
66681;BME280;53575;51.366;12.350;2022-09-30T02:15:03;99567.06;;;6.28;100.00
66681;BME280;53575;51.366;12.350;2022-09-30T02:17:38;99567.91;;;6.28;100.00
66681;BME280;53575;51.366;12.350;2022-09-30T02:20:13;99556.66;;;6.25;100.00
66681;BME280;53575;51.366;12.350;2022-09-30T02:22:45;99554.06;;;6.39;100.00
66681;BME280;53575;51.366;12.350;2022-09-30T02:25:22;99557.53;;;6.36;100.00
66681;BME280;53575;51.366;12.350;2022-09-30T02:27:55;99561.00;;;6.38;100.00
66681;BME280;53575;51.366;12.350;2022-09-30T02:30:23;99561.00;;;6.27;100.00
66681;BME280;53575;51.366;12.350;2022-09-30T02:32:55;99564.44;;;6.32;100.00
66681;BME280;53575;51.366;12.350;2022-09-30T02:36:08;99564.41;;;6.58;100.00
66681;BME280;53575;51.366;12.350;2022-09-30T02:38:25;99573.94;;;6.59;100.00
66681;BME280;53575;51.366;12.350;2022-09-30T02:41:01;99574.84;;;6.39;100.00
66681;BME280;53575;51.366;12.350;2022-09-30T02:43:31;99580.88;;;6.36;100.00
66681;BME280;53575;51.366;12.350;2022-09-30T02:46:37;99576.56;;;6.32;100.00
66681;BME280;53575;51.366;12.350;2022-09-30T02:52:22;99594.69;;;6.67;100.00
66681;BME280;53575;51.366;12.350;2022-09-30T02:55:00;99601.63;;;6.61;100.00
66681;BME280;53575;51.366;12.350;2022-09-30T02:57:58;99599.03;;;6.61;100.00
66681;BME280;53575;51.366;12.350;2022-09-30T03:00:27;99593.84;;;6.57;100.00
66681;BME280;53575;51.366;12.350;2022-09-30T03:02:56;99594.72;;;6.58;100.00
66681;BME280;53575;51.366;12.350;2022-09-30T03:05:24;99592.97;;;6.58;100.00
66681;BME280;53575;51.366;12.350;2022-09-30T03:07:49;99594.72;;;6.47;100.00
66681;BME280;53575;51.366;12.350;2022-09-30T03:10:16;99600.75;;;6.62;100.00
66681;BME280;53575;51.366;12.350;2022-09-30T03:15:30;99599.06;;;6.34;100.00
66681;BME280;53575;51.366;12.350;2022-09-30T03:19:11;99598.19;;;6.09;100.00
66681;BME280;53575;51.366;12.350;2022-09-30T03:26:59;99608.59;;;6.19;100.00
66681;BME280;53575;51.366;12.350;2022-09-30T03:32:05;99606.75;;;5.67;100.00
66681;BME280;53575;51.366;12.350;2022-09-30T03:34:49;99605.81;;;5.53;100.00
66681;BME280;53575;51.366;12.350;2022-09-30T03:42:56;99621.53;;;5.93;100.00
66681;BME280;53575;51.366;12.350;2022-09-30T03:45:32;99619.81;;;6.05;100.00
66681;BME280;53575;51.366;12.350;2022-09-30T03:48:03;99624.13;;;6.13;100.00
66681;BME280;53575;51.366;12.350;2022-09-30T03:50:30;99623.25;;;6.09;100.00
66681;BME280;53575;51.366;12.350;2022-09-30T03:52:58;99627.53;;;5.90;100.00
66681;BME280;53575;51.366;12.350;2022-09-30T03:55:24;99636.16;;;5.78;100.00
66681;BME280;53575;51.366;12.350;2022-09-30T03:57:50;99635.28;;;5.79;100.00
66681;BME280;53575;51.366;12.350;2022-09-30T04:00:16;99635.38;;;6.04;100.00
66681;BME280;53575;51.366;12.350;2022-09-30T04:02:43;99647.47;;;6.17;100.00
66681;BME280;53575;51.366;12.350;2022-09-30T04:05:09;99647.47;;;6.08;100.00
66681;BME280;53575;51.366;12.350;2022-09-30T04:07:35;99648.34;;;6.24;100.00
66681;BME280;53575;51.366;12.350;2022-09-30T04:10:00;99649.22;;;6.29;100.00
66681;BME280;53575;51.366;12.350;2022-09-30T04:12:25;99649.22;;;6.29;100.00
66681;BME280;53575;51.366;12.350;2022-09-30T04:14:51;99645.72;;;6.10;100.00
66681;BME280;53575;51.366;12.350;2022-09-30T04:17:16;99646.56;;;5.95;100.00
66681;BME280;53575;51.366;12.350;2022-09-30T04:19:42;99645.69;;;5.85;100.00
66681;BME280;53575;51.366;12.350;2022-09-30T04:22:08;99654.28;;;5.75;100.00
66681;BME280;53575;51.366;12.350;2022-09-30T04:24:34;99651.72;;;5.87;100.00
66681;BME280;53575;51.366;12.350;2022-09-30T04:27:00;99654.34;;;5.95;100.00
66681;BME280;53575;51.366;12.350;2022-09-30T04:29:26;99659.56;;;5.97;100.00
66681;BME280;53575;51.366;12.350;2022-09-30T04:31:51;99664.75;;;5.98;100.00
66681;BME280;53575;51.366;12.350;2022-09-30T04:34:17;99666.47;;;5.95;100.00
66681;BME280;53575;51.366;12.350;2022-09-30T04:36:43;99672.53;;;6.06;100.00
66681;BME280;53575;51.366;12.350;2022-09-30T04:39:08;99670.81;;;6.05;100.00
66681;BME280;53575;51.366;12.350;2022-09-30T04:41:34;99673.38;;;5.93;100.00
66681;BME280;53575;51.366;12.350;2022-09-30T04:43:59;99674.19;;;5.87;100.00
66681;BME280;53575;51.366;12.350;2022-09-30T04:46:30;99672.53;;;5.92;100.00
66681;BME280;53575;51.366;12.350;2022-09-30T04:48:56;99668.13;;;5.80;100.00
66681;BME280;53575;51.366;12.350;2022-09-30T04:51:21;99669.84;;;5.78;100.00
66681;BME280;53575;51.366;12.350;2022-09-30T04:53:47;99669.09;;;6.21;100.00
66681;BME280;53575;51.366;12.350;2022-09-30T04:56:14;99672.56;;;6.17;100.00
66681;BME280;53575;51.366;12.350;2022-09-30T04:58:41;99677.72;;;6.00;100.00
66681;BME280;53575;51.366;12.350;2022-09-30T05:01:12;99684.56;;;5.84;100.00
66681;BME280;53575;51.366;12.350;2022-09-30T05:03:38;99684.63;;;5.93;100.00
66681;BME280;53575;51.366;12.350;2022-09-30T05:06:04;99686.28;;;5.80;100.00
66681;BME280;53575;51.366;12.350;2022-09-30T05:08:30;99695.00;;;6.10;100.00
66681;BME280;53575;51.366;12.350;2022-09-30T05:11:04;99694.19;;;6.11;100.00
66681;BME280;53575;51.366;12.350;2022-09-30T05:13:34;99698.34;;;5.74;100.00
66681;BME280;53575;51.366;12.350;2022-09-30T05:16:01;99696.72;;;5.94;100.00
66681;BME280;53575;51.366;12.350;2022-09-30T05:18:27;99691.59;;;6.16;100.00
66681;BME280;53575;51.366;12.350;2022-09-30T05:20:54;99695.06;;;6.30;100.00
66681;BME280;53575;51.366;12.350;2022-09-30T05:23:21;99694.19;;;6.20;100.00
66681;BME280;53575;51.366;12.350;2022-09-30T05:25:48;99696.75;;;6.13;100.00
66681;BME280;53575;51.366;12.350;2022-09-30T05:28:13;99695.94;;;6.35;100.00
66681;BME280;53575;51.366;12.350;2022-09-30T05:30:39;99702.72;;;5.89;100.00
66681;BME280;53575;51.366;12.350;2022-09-30T05:33:06;99707.09;;;5.99;100.00
66681;BME280;53575;51.366;12.350;2022-09-30T05:35:32;99705.41;;;6.12;100.00
66681;BME280;53575;51.366;12.350;2022-09-30T05:37:59;99698.53;;;6.30;100.00
66681;BME280;53575;51.366;12.350;2022-09-30T05:40:25;99697.63;;;6.10;100.00
66681;BME280;53575;51.366;12.350;2022-09-30T05:42:50;99708.88;;;6.10;100.00
66681;BME280;53575;51.366;12.350;2022-09-30T05:45:16;99704.56;;;6.11;100.00
66681;BME280;53575;51.366;12.350;2022-09-30T05:47:41;99715.69;;;5.89;100.00
66681;BME280;53575;51.366;12.350;2022-09-30T05:50:07;99719.19;;;5.92;100.00
66681;BME280;53575;51.366;12.350;2022-09-30T05:52:33;99723.50;;;5.92;100.00
66681;BME280;53575;51.366;12.350;2022-09-30T05:54:58;99725.25;;;5.96;100.00
66681;BME280;53575;51.366;12.350;2022-09-30T05:57:28;99735.56;;;5.86;100.00
66681;BME280;53575;51.366;12.350;2022-09-30T05:59:55;99728.63;;;5.76;100.00
66681;BME280;53575;51.366;12.350;2022-09-30T06:02:22;99739.84;;;5.77;100.00
66681;BME280;53575;51.366;12.350;2022-09-30T06:04:47;99738.97;;;5.73;100.00
66681;BME280;53575;51.366;12.350;2022-09-30T06:07:14;99740.75;;;5.86;100.00
66681;BME280;53575;51.366;12.350;2022-09-30T06:09:39;99739.84;;;5.80;100.00
66681;BME280;53575;51.366;12.350;2022-09-30T06:12:05;99743.31;;;5.83;100.00
66681;BME280;53575;51.366;12.350;2022-09-30T06:14:31;99748.50;;;5.83;100.00
66681;BME280;53575;51.366;12.350;2022-09-30T06:16:57;99748.50;;;5.83;100.00
66681;BME280;53575;51.366;12.350;2022-09-30T06:19:24;99750.22;;;5.80;100.00
66681;BME280;53575;51.366;12.350;2022-09-30T06:21:50;99758.88;;;5.80;100.00
66681;BME280;53575;51.366;12.350;2022-09-30T06:24:16;99757.22;;;5.93;100.00
66681;BME280;53575;51.366;12.350;2022-09-30T06:26:41;99756.38;;;5.93;100.00
66681;BME280;53575;51.366;12.350;2022-09-30T06:29:07;99755.56;;;6.14;100.00
66681;BME280;53575;51.366;12.350;2022-09-30T06:31:32;99757.34;;;6.30;100.00
66681;BME280;53575;51.366;12.350;2022-09-30T06:33:58;99756.47;;;6.40;100.00
66681;BME280;53575;51.366;12.350;2022-09-30T06:36:23;99766.03;;;6.55;100.00
66681;BME280;53575;51.366;12.350;2022-09-30T06:38:49;99753.94;;;6.65;100.00
66681;BME280;53575;51.366;12.350;2022-09-30T06:41:18;99759.09;;;6.68;100.00
66681;BME280;53575;51.366;12.350;2022-09-30T06:43:44;99762.59;;;6.61;100.00
66681;BME280;53575;51.366;12.350;2022-09-30T06:46:09;99772.97;;;6.79;100.00
66681;BME280;53575;51.366;12.350;2022-09-30T06:48:36;99778.19;;;6.80;100.00
66681;BME280;53575;51.366;12.350;2022-09-30T06:51:02;99783.34;;;6.79;100.00
66681;BME280;53575;51.366;12.350;2022-09-30T06:53:27;99796.34;;;6.90;100.00
66681;BME280;53575;51.366;12.350;2022-09-30T06:55:56;99798.09;;;6.91;100.00
66681;BME280;53575;51.366;12.350;2022-09-30T06:58:22;99792.91;;;7.00;100.00
66681;BME280;53575;51.366;12.350;2022-09-30T07:01:05;99800.69;;;7.03;100.00
66681;BME280;53575;51.366;12.350;2022-09-30T07:03:32;99800.69;;;7.12;100.00
66681;BME280;53575;51.366;12.350;2022-09-30T07:06:00;99808.50;;;7.11;100.00
66681;BME280;53575;51.366;12.350;2022-09-30T07:08:28;99807.63;;;7.22;100.00
66681;BME280;53575;51.366;12.350;2022-09-30T07:10:59;99810.19;;;7.28;100.00
66681;BME280;53575;51.366;12.350;2022-09-30T07:13:24;99819.69;;;7.40;100.00
66681;BME280;53575;51.366;12.350;2022-09-30T07:15:50;99824.91;;;7.52;100.00
66681;BME280;53575;51.366;12.350;2022-09-30T07:18:22;99820.56;;;7.56;100.00
66681;BME280;53575;51.366;12.350;2022-09-30T07:20:52;99830.06;;;7.74;100.00
66681;BME280;53575;51.366;12.350;2022-09-30T07:23:19;99830.88;;;7.85;100.00
66681;BME280;53575;51.366;12.350;2022-09-30T07:25:49;99831.72;;;7.96;100.00
66681;BME280;53575;51.366;12.350;2022-09-30T07:28:15;99834.31;;;7.99;100.00
66681;BME280;53575;51.366;12.350;2022-09-30T07:30:41;99832.53;;;8.11;100.00
66681;BME280;53575;51.366;12.350;2022-09-30T07:33:08;99827.34;;;8.09;100.00
66681;BME280;53575;51.366;12.350;2022-09-30T07:35:33;99829.03;;;8.22;100.00
66681;BME280;53575;51.366;12.350;2022-09-30T07:37:58;99828.13;;;8.29;100.00
66681;BME280;53575;51.366;12.350;2022-09-30T07:40:25;99831.59;;;8.38;100.00
66681;BME280;53575;51.366;12.350;2022-09-30T07:42:55;99839.34;;;8.47;99.57
66681;BME280;53575;51.366;12.350;2022-09-30T07:45:22;99826.31;;;8.47;99.19
66681;BME280;53575;51.366;12.350;2022-09-30T07:47:47;99841.88;;;8.58;99.63
66681;BME280;53575;51.366;12.350;2022-09-30T07:50:13;99841.81;;;8.70;97.60
66681;BME280;53575;51.366;12.350;2022-09-30T07:52:39;99849.59;;;8.79;96.95
66681;BME280;53575;51.366;12.350;2022-09-30T07:55:05;99843.53;;;8.75;96.77
66681;BME280;53575;51.366;12.350;2022-09-30T07:57:30;99851.25;;;8.88;96.78
66681;BME280;53575;51.366;12.350;2022-09-30T07:59:56;99846.03;;;8.94;96.59
66681;BME280;53575;51.366;12.350;2022-09-30T08:02:21;99850.38;;;8.93;96.60
66681;BME280;53575;51.366;12.350;2022-09-30T08:04:48;99849.41;;;9.05;95.45
66681;BME280;53575;51.366;12.350;2022-09-30T08:07:15;99850.19;;;9.15;94.53
66681;BME280;53575;51.366;12.350;2022-09-30T08:09:41;99860.56;;;9.24;94.45
66681;BME280;53575;51.366;12.350;2022-09-30T08:12:06;99859.72;;;9.20;94.07
66681;BME280;53575;51.366;12.350;2022-09-30T08:14:32;99867.50;;;9.25;94.48
66681;BME280;53575;51.366;12.350;2022-09-30T08:16:57;99866.50;;;9.41;94.16
66681;BME280;53575;51.366;12.350;2022-09-30T08:19:25;99869.81;;;9.57;92.98
66681;BME280;53575;51.366;12.350;2022-09-30T08:21:51;99875.00;;;9.63;91.99
66681;BME280;53575;51.366;12.350;2022-09-30T08:24:18;99881.03;;;9.70;91.51
66681;BME280;53575;51.366;12.350;2022-09-30T08:26:44;99882.63;;;9.85;90.53
66681;BME280;53575;51.366;12.350;2022-09-30T08:29:10;99888.47;;;10.07;90.22
66681;BME280;53575;51.366;12.350;2022-09-30T08:31:37;99896.19;;;10.19;90.05
66681;BME280;53575;51.366;12.350;2022-09-30T08:34:03;99889.91;;;10.38;89.46
66681;BME280;53575;51.366;12.350;2022-09-30T08:36:29;99887.84;;;10.62;87.51
66681;BME280;53575;51.366;12.350;2022-09-30T08:38:54;99887.66;;;10.77;87.23
66681;BME280;53575;51.366;12.350;2022-09-30T08:51:55;99880.41;;;10.96;86.26
66681;BME280;53575;51.366;12.350;2022-09-30T08:54:24;99893.44;;;10.99;85.70
66681;BME280;53575;51.366;12.350;2022-09-30T08:56:50;99886.34;;;11.06;85.64
66681;BME280;53575;51.366;12.350;2022-09-30T08:59:32;99889.94;;;11.00;85.91
66681;BME280;53575;51.366;12.350;2022-09-30T09:04:39;99892.28;;;11.17;84.22
66681;BME280;53575;51.366;12.350;2022-09-30T09:18:10;99881.22;;;11.54;83.17
66681;BME280;53575;51.366;12.350;2022-09-30T09:20:49;99873.31;;;11.58;83.02
66681;BME280;53575;51.366;12.350;2022-09-30T09:23:17;99875.84;;;11.63;83.01
66681;BME280;53575;51.366;12.350;2022-09-30T09:25:42;99881.69;;;11.77;83.02
66681;BME280;53575;51.366;12.350;2022-09-30T09:28:41;99878.03;;;11.89;81.46
66681;BME280;53575;51.366;12.350;2022-09-30T09:31:13;99884.97;;;11.90;80.26
66681;BME280;53575;51.366;12.350;2022-09-30T09:33:41;99882.19;;;11.99;79.24
66681;BME280;53575;51.366;12.350;2022-09-30T09:41:14;99878.38;;;12.15;77.61
66681;BME280;53575;51.366;12.350;2022-09-30T09:43:53;99872.03;;;12.27;77.16
66681;BME280;53575;51.366;12.350;2022-09-30T09:46:33;99880.44;;;12.44;76.38
66681;BME280;53575;51.366;12.350;2022-09-30T09:54:31;99882.41;;;12.74;72.37
66681;BME280;53575;51.366;12.350;2022-09-30T09:57:07;99884.91;;;12.80;73.15
66681;BME280;53575;51.366;12.350;2022-09-30T09:59:34;99885.66;;;12.86;72.70
66681;BME280;53575;51.366;12.350;2022-09-30T10:02:00;99889.13;;;12.87;72.25
66681;BME280;53575;51.366;12.350;2022-09-30T10:04:27;99881.81;;;13.01;70.00
66681;BME280;53575;51.366;12.350;2022-09-30T10:07:17;99882.59;;;13.05;71.22
66681;BME280;53575;51.366;12.350;2022-09-30T10:09:44;99870.91;;;13.18;70.46
66681;BME280;53575;51.366;12.350;2022-09-30T10:14:39;99871.63;;;13.26;69.94
66681;BME280;53575;51.366;12.350;2022-09-30T10:17:30;99864.31;;;13.39;69.71
66681;BME280;53575;51.366;12.350;2022-09-30T10:20:15;99870.19;;;13.49;67.34
66681;BME280;53575;51.366;12.350;2022-09-30T10:22:44;99867.44;;;13.55;68.02
66681;BME280;53575;51.366;12.350;2022-09-30T10:25:18;99862.78;;;13.64;68.25
66681;BME280;53575;51.366;12.350;2022-09-30T10:27:57;99862.53;;;13.75;68.06
66681;BME280;53575;51.366;12.350;2022-09-30T10:30:42;99850.09;;;13.82;68.62
66681;BME280;53575;51.366;12.350;2022-09-30T10:33:15;99849.09;;;13.86;67.93
66681;BME280;53575;51.366;12.350;2022-09-30T10:36:00;99855.53;;;14.07;66.10
66681;BME280;53575;51.366;12.350;2022-09-30T10:38:27;99856.50;;;14.03;66.66
66681;BME280;53575;51.366;12.350;2022-09-30T10:40:54;99857.78;;;14.21;65.43
66681;BME280;53575;51.366;12.350;2022-09-30T10:43:33;99854.88;;;14.30;64.64
66681;BME280;53575;51.366;12.350;2022-09-30T10:46:02;99855.44;;;14.41;64.79
66681;BME280;53575;51.366;12.350;2022-09-30T10:48:32;99852.63;;;14.47;63.34
66681;BME280;53575;51.366;12.350;2022-09-30T10:50:58;99853.22;;;14.58;63.24
66681;BME280;53575;51.366;12.350;2022-09-30T10:53:30;99845.31;;;14.58;62.90
66681;BME280;53575;51.366;12.350;2022-09-30T10:55:56;99852.16;;;14.64;61.86
66681;BME280;53575;51.366;12.350;2022-09-30T10:58:39;99850.19;;;14.71;61.00
66681;BME280;53575;51.366;12.350;2022-09-30T11:01:27;99851.66;;;14.81;57.95
66681;BME280;53575;51.366;12.350;2022-09-30T11:06:48;99854.34;;;15.06;56.95
66681;BME280;53575;51.366;12.350;2022-09-30T11:09:30;99859.63;;;15.06;56.65
66681;BME280;53575;51.366;12.350;2022-09-30T11:12:19;99861.25;;;15.10;57.62
66681;BME280;53575;51.366;12.350;2022-09-30T11:15:03;99858.63;;;15.10;58.35
66681;BME280;53575;51.366;12.350;2022-09-30T11:20:25;99851.72;;;15.34;56.77
66681;BME280;53575;51.366;12.350;2022-09-30T11:25:42;99847.41;;;15.31;57.67
66681;BME280;53575;51.366;12.350;2022-09-30T11:28:19;99848.09;;;15.36;58.00
66681;BME280;53575;51.366;12.350;2022-09-30T11:31:30;99845.19;;;15.46;55.15
66681;BME280;53575;51.366;12.350;2022-09-30T11:34:04;99850.63;;;15.40;56.20
66681;BME280;53575;51.366;12.350;2022-09-30T11:36:44;99842.22;;;15.55;56.55
66681;BME280;53575;51.366;12.350;2022-09-30T11:39:52;99837.53;;;15.63;58.37
66681;BME280;53575;51.366;12.350;2022-09-30T11:42:44;99827.53;;;15.74;58.15
66681;BME280;53575;51.366;12.350;2022-09-30T11:50:45;99832.00;;;16.21;55.70
66681;BME280;53575;51.366;12.350;2022-09-30T11:53:27;99819.53;;;16.26;54.90
66681;BME280;53575;51.366;12.350;2022-09-30T11:58:47;99823.41;;;16.16;55.73
66681;BME280;53575;51.366;12.350;2022-09-30T12:01:36;99828.59;;;16.41;56.26
66681;BME280;53575;51.366;12.350;2022-09-30T12:04:11;99825.75;;;16.47;54.16
66681;BME280;53575;51.366;12.350;2022-09-30T12:06:42;99837.63;;;16.58;54.88
66681;BME280;53575;51.366;12.350;2022-09-30T12:09:15;99831.59;;;16.78;53.37
66681;BME280;53575;51.366;12.350;2022-09-30T12:11:53;99833.13;;;16.84;54.98
66681;BME280;53575;51.366;12.350;2022-09-30T12:16:48;99830.63;;;17.03;53.74
66681;BME280;53575;51.366;12.350;2022-09-30T12:19:23;99826.81;;;17.10;53.54
66681;BME280;53575;51.366;12.350;2022-09-30T12:24:59;99836.06;;;17.20;51.79
66681;BME280;53575;51.366;12.350;2022-09-30T12:27:32;99828.94;;;17.22;50.17
66681;BME280;53575;51.366;12.350;2022-09-30T12:30:02;99846.50;;;17.01;51.38
66681;BME280;53575;51.366;12.350;2022-09-30T12:39:40;99839.16;;;17.10;50.64
66681;BME280;53575;51.366;12.350;2022-09-30T12:47:21;99843.97;;;17.63;49.58
66681;BME280;53575;51.366;12.350;2022-09-30T12:49:44;99840.41;;;18.05;49.28
66681;BME280;53575;51.366;12.350;2022-09-30T12:52:14;99840.13;;;18.31;47.29
66681;BME280;53575;51.366;12.350;2022-09-30T12:54:53;99842.75;;;18.31;47.17
66681;BME280;53575;51.366;12.350;2022-09-30T12:57:23;99843.66;;;18.11;48.26
66681;BME280;53575;51.366;12.350;2022-09-30T12:59:53;99846.94;;;18.37;47.86
66681;BME280;53575;51.366;12.350;2022-09-30T13:02:34;99845.63;;;18.45;47.53
66681;BME280;53575;51.366;12.350;2022-09-30T13:34:30;99825.00;;;19.80;45.02
66681;BME280;53575;51.366;12.350;2022-09-30T13:36:58;99830.72;;;20.05;43.71
66681;BME280;53575;51.366;12.350;2022-09-30T13:42:21;99833.63;;;20.34;42.52
66681;BME280;53575;51.366;12.350;2022-09-30T13:45:03;99834.47;;;20.18;42.67
66681;BME280;53575;51.366;12.350;2022-09-30T13:47:58;99840.69;;;20.51;42.67
66681;BME280;53575;51.366;12.350;2022-09-30T13:50:36;99834.38;;;20.85;41.34
66681;BME280;53575;51.366;12.350;2022-09-30T13:53:06;99832.28;;;21.22;40.44
66681;BME280;53575;51.366;12.350;2022-09-30T13:55:42;99838.75;;;20.86;41.17
66681;BME280;53575;51.366;12.350;2022-09-30T13:58:53;99845.69;;;20.57;41.21
66681;BME280;53575;51.366;12.350;2022-09-30T14:12:48;99839.06;;;20.64;41.53
66681;BME280;53575;51.366;12.350;2022-09-30T14:18:26;99841.34;;;21.49;40.09
66681;BME280;53575;51.366;12.350;2022-09-30T14:23:26;99835.41;;;21.44;40.76
66681;BME280;53575;51.366;12.350;2022-09-30T14:26:07;99833.75;;;21.57;40.21
66681;BME280;53575;51.366;12.350;2022-09-30T14:28:42;99841.59;;;20.99;39.81
66681;BME280;53575;51.366;12.350;2022-09-30T14:31:12;99831.06;;;21.27;39.60
66681;BME280;53575;51.366;12.350;2022-09-30T14:33:40;99835.44;;;21.28;40.08
66681;BME280;53575;51.366;12.350;2022-09-30T14:36:13;99833.00;;;20.78;40.15
66681;BME280;53575;51.366;12.350;2022-09-30T14:38:43;99842.47;;;20.17;41.04
66681;BME280;53575;51.366;12.350;2022-09-30T14:41:16;99836.47;;;19.63;42.77
66681;BME280;53575;51.366;12.350;2022-09-30T14:43:43;99840.03;;;19.27;43.24
66681;BME280;53575;51.366;12.350;2022-09-30T14:46:31;99837.31;;;19.10;44.45
66681;BME280;53575;51.366;12.350;2022-09-30T14:48:59;99845.06;;;18.39;45.63
66681;BME280;53575;51.366;12.350;2022-09-30T14:51:28;99843.22;;;18.01;47.27
66681;BME280;53575;51.366;12.350;2022-09-30T14:53:59;99839.94;;;18.15;46.49
66681;BME280;53575;51.366;12.350;2022-09-30T14:56:33;99843.19;;;18.22;47.08
66681;BME280;53575;51.366;12.350;2022-09-30T14:59:14;99834.03;;;18.10;48.61
66681;BME280;53575;51.366;12.350;2022-09-30T15:01:41;99833.56;;;18.00;48.01
66681;BME280;53575;51.366;12.350;2022-09-30T15:04:14;99838.75;;;17.83;47.69
66681;BME280;53575;51.366;12.350;2022-09-30T15:06:46;99834.34;;;17.62;47.32
66681;BME280;53575;51.366;12.350;2022-09-30T15:09:16;99839.00;;;17.55;47.00
66681;BME280;53575;51.366;12.350;2022-09-30T15:11:42;99836.97;;;17.41;46.62
66681;BME280;53575;51.366;12.350;2022-09-30T15:16:54;99828.84;;;17.25;47.20
66681;BME280;53575;51.366;12.350;2022-09-30T15:19:23;99837.06;;;17.18;47.21
66681;BME280;53575;51.366;12.350;2022-09-30T15:21:56;99832.03;;;17.12;47.30
66681;BME280;53575;51.366;12.350;2022-09-30T15:24:27;99834.59;;;17.13;47.54
66681;BME280;53575;51.366;12.350;2022-09-30T15:26:57;99839.63;;;16.97;48.10
66681;BME280;53575;51.366;12.350;2022-09-30T15:29:24;99836.94;;;16.77;47.43
66681;BME280;53575;51.366;12.350;2022-09-30T15:32:02;99838.91;;;16.70;48.38
66681;BME280;53575;51.366;12.350;2022-09-30T15:34:28;99831.69;;;16.52;49.12
66681;BME280;53575;51.366;12.350;2022-09-30T15:37:02;99845.63;;;16.55;48.54
66681;BME280;53575;51.366;12.350;2022-09-30T15:39:32;99841.28;;;16.54;48.81
66681;BME280;53575;51.366;12.350;2022-09-30T15:42:35;99837.00;;;16.28;49.63
66681;BME280;53575;51.366;12.350;2022-09-30T15:45:03;99846.44;;;16.11;51.76
66681;BME280;53575;51.366;12.350;2022-09-30T15:47:30;99847.41;;;16.08;50.96
66681;BME280;53575;51.366;12.350;2022-09-30T15:49:55;99846.59;;;16.06;50.89
66681;BME280;53575;51.366;12.350;2022-09-30T15:52:37;99836.97;;;16.05;50.92
66681;BME280;53575;51.366;12.350;2022-09-30T15:55:36;99844.72;;;16.09;51.07
66681;BME280;53575;51.366;12.350;2022-09-30T15:58:02;99840.47;;;16.05;50.61
66681;BME280;53575;51.366;12.350;2022-09-30T16:00:33;99839.25;;;15.91;51.14